createdAt,value
2019-04-25T00:01:26.147Z,1.05
2019-04-25T00:03:53.337Z,1.00
2019-04-25T00:06:21.531Z,1.05
2019-04-25T00:08:48.387Z,1.10
2019-04-25T00:11:15.199Z,1.27
2019-04-25T00:13:42.790Z,1.20
2019-04-25T00:16:11.548Z,0.80
2019-04-25T00:18:38.625Z,0.75
2019-04-25T00:21:10.079Z,0.80
2019-04-25T00:23:37.695Z,1.00
2019-04-25T00:26:23.859Z,0.85
2019-04-25T00:28:50.279Z,1.02
2019-04-25T00:31:16.835Z,1.00
2019-04-25T00:33:44.189Z,1.10
2019-04-25T00:36:12.065Z,1.00
2019-04-25T00:38:38.594Z,0.85
2019-04-25T00:41:04.891Z,0.90
2019-04-25T00:43:31.561Z,0.80
2019-04-25T00:45:58.428Z,0.98
2019-04-25T00:48:24.950Z,1.05
2019-04-25T00:50:52.069Z,0.98
2019-04-25T00:53:19.359Z,0.90
2019-04-25T00:55:46.397Z,0.70
2019-04-25T00:58:14.635Z,0.95
2019-04-25T01:00:45.812Z,1.10
2019-04-25T01:03:14.026Z,1.25
2019-04-25T01:05:40.324Z,0.68
2019-04-25T01:08:06.799Z,1.05
2019-04-25T01:10:33.421Z,0.98
2019-04-25T01:13:01.117Z,1.62
2019-04-25T01:15:27.978Z,0.93
2019-04-25T01:17:55.111Z,0.80
2019-04-25T01:20:21.614Z,0.95
2019-04-25T01:22:47.915Z,0.80
2019-04-25T01:25:14.211Z,1.10
2019-04-25T01:27:40.644Z,0.80
2019-04-25T01:30:07.462Z,0.80
2019-04-25T01:32:35.720Z,0.85
2019-04-25T01:35:14.815Z,1.00
2019-04-25T01:37:59.751Z,1.10
2019-04-25T01:40:44.453Z,0.82
2019-04-25T01:43:24.829Z,0.88
2019-04-25T01:45:51.828Z,1.05
2019-04-25T01:48:18.428Z,1.45
2019-04-25T01:50:44.855Z,1.05
2019-04-25T01:53:11.373Z,0.85
2019-04-25T01:55:37.727Z,0.90
2019-04-25T01:58:04.172Z,0.82
2019-04-25T02:00:33.294Z,1.10
2019-04-25T02:02:59.988Z,0.75
2019-04-25T02:05:26.605Z,0.98
2019-04-25T02:07:54.451Z,1.02
2019-04-25T02:10:21.631Z,0.82
2019-04-25T02:12:49.941Z,0.70
2019-04-25T02:15:18.159Z,0.78
2019-04-25T02:17:44.464Z,0.90
2019-04-25T02:20:11.293Z,0.80
2019-04-25T02:22:37.591Z,0.75
2019-04-25T02:25:04.616Z,0.80
2019-04-25T02:27:30.904Z,0.65
2019-04-25T02:29:57.298Z,0.88
2019-04-25T02:32:24.732Z,0.40
2019-04-25T02:34:51.781Z,0.80
2019-04-25T02:37:18.080Z,0.85
2019-04-25T02:39:44.835Z,0.60
2019-04-25T02:42:11.357Z,0.80
2019-04-25T02:44:39.589Z,1.05
2019-04-25T02:47:24.871Z,0.80
2019-04-25T02:49:57.291Z,0.70
2019-04-25T02:52:31.717Z,0.68
2019-04-25T02:54:59.040Z,0.60
2019-04-25T02:57:26.311Z,0.82
2019-04-25T02:59:54.609Z,0.72
2019-04-25T03:02:21.059Z,0.70
2019-04-25T03:04:47.352Z,0.98
2019-04-25T03:07:16.729Z,1.12
2019-04-25T03:09:47.516Z,1.47
2019-04-25T03:12:29.573Z,1.15
2019-04-25T03:14:45.793Z,1.37
2019-04-25T03:17:14.249Z,1.10
2019-04-25T03:19:54.416Z,1.05
2019-04-25T03:22:26.662Z,1.15
2019-04-25T03:24:54.856Z,1.50
2019-04-25T03:27:21.423Z,2.30
2019-04-25T03:29:48.128Z,1.27
2019-04-25T03:32:19.593Z,1.50
2019-04-25T03:34:43.481Z,1.50
2019-04-25T03:37:10.079Z,1.40
2019-04-25T03:39:36.420Z,1.00
2019-04-25T03:42:08.779Z,1.10
2019-04-25T03:44:35.144Z,1.10
2019-04-25T03:47:03.505Z,0.60
2019-04-25T03:49:29.667Z,0.60
2019-04-25T03:51:55.989Z,0.82
2019-04-25T03:54:23.552Z,0.70
2019-04-25T03:56:54.344Z,0.62
2019-04-25T03:59:18.664Z,0.60
2019-04-25T04:01:44.971Z,0.50
2019-04-25T04:04:11.505Z,0.40
2019-04-25T04:06:38.029Z,0.40
2019-04-25T04:09:06.628Z,0.40
2019-04-25T04:11:33.694Z,0.30
2019-04-25T04:14:00.475Z,0.33
2019-04-25T04:16:28.735Z,0.33
2019-04-25T04:18:55.450Z,0.40
2019-04-25T04:21:33.252Z,0.40
2019-04-25T04:24:10.503Z,0.40
2019-04-25T04:26:37.039Z,0.17
2019-04-25T04:29:04.681Z,0.25
2019-04-25T04:31:31.204Z,0.10
2019-04-25T04:33:58.174Z,0.20
2019-04-25T04:36:25.569Z,0.10
2019-04-25T04:38:52.029Z,0.20
2019-04-25T04:41:18.389Z,0.20
2019-04-25T04:43:44.807Z,0.10
2019-04-25T04:46:12.087Z,0.00
2019-04-25T04:48:39.127Z,0.13
2019-04-25T04:51:05.468Z,0.13
2019-04-25T04:53:33.828Z,0.10
2019-04-25T04:55:59.904Z,0.00
2019-04-25T04:58:26.203Z,0.10
2019-04-25T05:00:53.703Z,0.10
2019-04-25T05:03:27.984Z,0.20
2019-04-25T05:06:05.160Z,0.13
2019-04-25T05:08:33.873Z,0.00
2019-04-25T05:11:00.319Z,0.10
2019-04-25T05:13:26.723Z,0.00
2019-04-25T05:15:53.365Z,0.00
2019-04-25T05:18:31.546Z,0.10
2019-04-25T05:20:48.167Z,0.10
2019-04-25T05:23:15.096Z,0.00
2019-04-25T05:25:44.098Z,0.00
2019-04-25T05:28:10.531Z,0.17
2019-04-25T05:30:43.185Z,0.08
2019-04-25T05:33:10.659Z,0.13
2019-04-25T05:35:37.212Z,0.20
2019-04-25T05:38:03.734Z,0.10
2019-04-25T05:40:30.104Z,0.00
2019-04-25T05:42:58.574Z,0.20
2019-04-25T05:45:27.102Z,0.00
2019-04-25T05:47:54.101Z,0.17
2019-04-25T05:50:20.881Z,0.10
2019-04-25T05:52:47.189Z,0.10
2019-04-25T05:55:14.262Z,0.10
2019-04-25T05:57:47.364Z,0.08
2019-04-25T06:00:11.047Z,0.00
2019-04-25T06:02:37.503Z,0.10
2019-04-25T06:05:05.532Z,0.20
2019-04-25T06:07:33.306Z,0.08
2019-04-25T06:10:14.415Z,0.00
2019-04-25T06:12:45.391Z,0.08
2019-04-25T06:15:13.239Z,0.00
2019-04-25T06:17:45.552Z,0.10
2019-04-25T06:20:13.888Z,0.33
2019-04-25T06:22:53.974Z,0.10
2019-04-25T06:25:27.052Z,0.10
2019-04-25T06:27:58.574Z,0.30
2019-04-25T06:30:24.586Z,0.25
2019-04-25T06:32:51.039Z,0.10
2019-04-25T06:35:17.486Z,0.10
2019-04-25T06:37:43.940Z,0.10
2019-04-25T06:40:10.232Z,0.10
2019-04-25T06:42:38.460Z,0.10
2019-04-25T06:45:11.307Z,0.10
2019-04-25T06:47:39.517Z,0.00
2019-04-25T06:50:06.021Z,0.00
2019-04-25T06:52:34.447Z,0.10
2019-04-25T06:55:00.455Z,0.00
2019-04-25T06:57:28.217Z,0.10
2019-04-25T06:59:55.550Z,0.00
2019-04-25T07:02:22.738Z,0.10
2019-04-25T07:04:51.643Z,0.10
2019-04-25T07:07:18.244Z,0.20
2019-04-25T07:09:44.758Z,0.10
2019-04-25T07:12:11.196Z,0.00
2019-04-25T07:14:37.611Z,0.20
2019-04-25T07:17:04.405Z,0.20
2019-04-25T07:19:32.022Z,0.23
2019-04-25T07:21:58.493Z,0.10
2019-04-25T07:24:25.872Z,0.10
2019-04-25T07:27:11.285Z,0.20
2019-04-25T07:29:43.308Z,0.10
2019-04-25T07:32:20.814Z,0.28
2019-04-25T07:34:47.435Z,0.20
2019-04-25T07:37:13.862Z,0.10
2019-04-25T07:39:40.278Z,0.30
2019-04-25T07:42:06.844Z,0.30
2019-04-25T07:44:41.902Z,0.13
2019-04-25T07:47:01.363Z,0.25
2019-04-25T07:49:28.476Z,0.20
2019-04-25T07:51:55.063Z,0.17
2019-04-25T07:54:21.586Z,0.20
2019-04-25T07:56:48.200Z,0.28
2019-04-25T07:59:14.639Z,0.20
2019-04-25T08:01:41.063Z,0.30
2019-04-25T08:04:07.671Z,0.20
2019-04-25T08:06:34.594Z,0.35
2019-04-25T08:09:01.247Z,0.20
2019-04-25T08:11:28.107Z,0.20
2019-04-25T08:14:03.454Z,0.37
2019-04-25T08:16:33.481Z,0.20
2019-04-25T08:19:00.436Z,0.20
2019-04-25T08:21:26.763Z,0.23
2019-04-25T08:23:53.899Z,0.47
2019-04-25T08:26:20.747Z,0.40
2019-04-25T08:28:55.012Z,0.30
2019-04-25T08:31:15.265Z,0.20
2019-04-25T08:33:43.771Z,0.50
2019-04-25T08:36:10.025Z,0.20
2019-04-25T08:38:36.383Z,0.20
2019-04-25T08:41:04.119Z,0.23
2019-04-25T08:43:30.935Z,0.23
2019-04-25T08:45:57.646Z,0.50
2019-04-25T08:48:25.819Z,0.20
2019-04-25T08:50:57.066Z,0.20
2019-04-25T08:53:25.261Z,0.40
2019-04-25T08:55:59.437Z,0.40
2019-04-25T08:58:43.627Z,0.23
2019-04-25T09:01:18.591Z,0.25
2019-04-25T09:03:49.727Z,0.20
2019-04-25T09:06:16.127Z,0.30
2019-04-25T09:08:45.342Z,0.40
2019-04-25T09:11:10.967Z,0.30
2019-04-25T09:13:38.385Z,0.47
2019-04-25T09:16:13.477Z,1.05
2019-04-25T09:18:40.212Z,0.90
2019-04-25T09:21:09.666Z,0.80
2019-04-25T09:23:36.586Z,0.70
2019-04-25T09:26:05.570Z,0.88
2019-04-25T09:28:34.721Z,0.90
2019-04-25T09:31:00.539Z,0.80
2019-04-25T09:33:26.963Z,0.80
2019-04-25T09:35:54.054Z,0.68
2019-04-25T09:38:20.497Z,0.70
2019-04-25T09:40:46.796Z,0.68
2019-04-25T09:43:13.606Z,0.85
2019-04-25T09:45:50.463Z,0.70
2019-04-25T09:48:23.165Z,0.60
2019-04-25T09:50:51.436Z,0.70
2019-04-25T09:53:23.519Z,0.80
2019-04-25T09:55:48.690Z,1.15
2019-04-25T09:58:36.414Z,0.80
2019-04-25T10:01:09.355Z,0.90
2019-04-25T10:03:36.554Z,1.80
2019-04-25T10:06:03.393Z,0.90
2019-04-25T10:08:29.809Z,0.90
2019-04-25T10:10:56.127Z,0.62
2019-04-25T10:13:23.497Z,0.60
2019-04-25T10:16:02.299Z,0.70
2019-04-25T10:18:29.646Z,0.90
2019-04-25T10:20:56.061Z,1.15
2019-04-25T10:23:23.987Z,0.50
2019-04-25T10:25:51.055Z,0.93
2019-04-25T10:28:17.372Z,1.10
2019-04-25T10:30:44.006Z,0.90
2019-04-25T10:33:10.494Z,0.90
2019-04-25T10:35:46.736Z,0.75
2019-04-25T10:38:05.267Z,0.70
2019-04-25T10:40:31.542Z,0.95
2019-04-25T10:42:58.084Z,0.65
2019-04-25T10:45:26.055Z,0.95
2019-04-25T10:47:53.309Z,0.60
2019-04-25T10:50:20.826Z,0.95
2019-04-25T10:52:48.303Z,0.95
2019-04-25T10:55:14.618Z,0.88
2019-04-25T10:57:41.031Z,0.70
2019-04-25T11:00:24.061Z,0.70
2019-04-25T11:02:50.614Z,1.32
2019-04-25T11:05:17.414Z,0.90
2019-04-25T11:07:44.506Z,1.82
2019-04-25T11:10:10.952Z,1.55
2019-04-25T11:12:37.372Z,2.25
2019-04-25T11:15:04.480Z,1.30
2019-04-25T11:17:30.875Z,1.25
2019-04-25T11:19:57.505Z,1.65
2019-04-25T11:22:24.043Z,1.65
2019-04-25T11:24:50.717Z,1.72
2019-04-25T11:27:17.122Z,1.02
2019-04-25T11:29:45.073Z,1.00
2019-04-25T11:32:13.586Z,1.77
2019-04-25T11:34:40.231Z,1.35
2019-04-25T11:37:06.654Z,0.90
2019-04-25T11:39:35.092Z,1.47
2019-04-25T11:42:01.616Z,1.50
2019-04-25T11:44:28.129Z,1.37
2019-04-25T11:46:54.548Z,1.20
2019-04-25T11:49:20.859Z,1.72
2019-04-25T11:51:48.169Z,1.30
2019-04-25T11:54:14.611Z,1.00
2019-04-25T11:56:42.647Z,1.75
2019-04-25T11:59:09.127Z,1.37
2019-04-25T12:01:35.556Z,1.10
2019-04-25T12:04:01.856Z,1.07
2019-04-25T12:06:28.184Z,0.98
2019-04-25T12:08:55.313Z,1.22
2019-04-25T12:11:23.494Z,1.35
2019-04-25T12:13:50.463Z,1.20
2019-04-25T12:16:17.185Z,1.10
2019-04-25T12:18:45.253Z,1.10
2019-04-25T12:21:13.512Z,1.32
2019-04-25T12:23:39.934Z,1.02
2019-04-25T12:26:06.837Z,1.30
2019-04-25T12:28:33.860Z,0.93
2019-04-25T12:31:00.324Z,1.00
2019-04-25T12:33:26.628Z,1.10
2019-04-25T12:35:54.191Z,0.98
2019-04-25T12:38:21.053Z,1.20
2019-04-25T12:40:48.151Z,1.30
2019-04-25T12:43:14.563Z,1.40
2019-04-25T12:45:45.901Z,1.37
2019-04-25T12:48:14.481Z,1.40
2019-04-25T12:50:40.823Z,1.00
2019-04-25T12:53:07.124Z,0.90
2019-04-25T12:55:34.224Z,0.93
2019-04-25T12:58:00.785Z,0.98
2019-04-25T13:00:28.679Z,1.10
2019-04-25T13:02:55.103Z,1.10
2019-04-25T13:05:21.402Z,1.12
2019-04-25T13:07:48.006Z,1.02
2019-04-25T13:10:15.364Z,0.90
2019-04-25T13:12:41.910Z,1.20
2019-04-25T13:15:08.907Z,0.93
2019-04-25T13:17:36.166Z,1.27
2019-04-25T13:20:05.619Z,0.95
2019-04-25T13:22:33.070Z,0.93
2019-04-25T13:25:00.144Z,0.90
2019-04-25T13:27:40.497Z,1.15
2019-04-25T13:30:20.712Z,0.80
2019-04-25T13:32:48.956Z,0.88
2019-04-25T13:35:26.311Z,0.90
2019-04-25T13:37:53.959Z,1.00
2019-04-25T13:40:20.251Z,0.80
2019-04-25T13:42:46.871Z,0.80
2019-04-25T13:45:14.591Z,1.00
2019-04-25T13:47:41.004Z,0.80
2019-04-25T13:50:07.333Z,0.82
2019-04-25T13:52:35.880Z,0.70
2019-04-25T13:55:03.785Z,0.90
2019-04-25T13:57:30.326Z,1.05
2019-04-25T13:59:56.632Z,0.90
2019-04-25T14:02:23.456Z,0.70
2019-04-25T14:04:50.211Z,0.80
2019-04-25T14:07:17.041Z,0.78
2019-04-25T14:09:44.673Z,0.75
2019-04-25T14:12:12.079Z,0.53
2019-04-25T14:14:38.486Z,0.55
2019-04-25T14:17:13.917Z,1.00
2019-04-25T14:19:42.287Z,0.70
2019-04-25T14:22:09.274Z,0.78
2019-04-25T14:24:35.864Z,0.65
2019-04-25T14:27:03.667Z,0.60
2019-04-25T14:29:31.043Z,0.90
2019-04-25T14:31:57.813Z,1.00
2019-04-25T14:34:25.314Z,0.80
2019-04-25T14:36:54.201Z,0.90
2019-04-25T14:39:21.011Z,0.68
2019-04-25T14:41:47.998Z,0.88
2019-04-25T14:44:14.298Z,0.60
2019-04-25T14:46:40.812Z,0.80
2019-04-25T14:49:07.128Z,0.60
2019-04-25T14:51:33.450Z,0.80
2019-04-25T14:54:01.654Z,0.80
2019-04-25T14:56:36.999Z,0.95
2019-04-25T14:59:04.126Z,0.82
2019-04-25T15:01:43.821Z,1.12
2019-04-25T15:03:58.679Z,0.98
2019-04-25T15:06:25.779Z,1.05
2019-04-25T15:08:52.309Z,0.85
2019-04-25T15:11:18.651Z,1.00
2019-04-25T15:13:44.960Z,1.20
2019-04-25T15:16:11.615Z,0.90
2019-04-25T15:18:46.505Z,1.00
2019-04-25T15:21:08.927Z,1.15
2019-04-25T15:23:35.818Z,1.20
2019-04-25T15:26:02.492Z,0.70
2019-04-25T15:28:29.724Z,0.80
2019-04-25T15:30:56.788Z,0.90
2019-04-25T15:33:24.289Z,1.02
2019-04-25T15:35:53.567Z,0.70
2019-04-25T15:38:24.847Z,0.80
2019-04-25T15:40:55.819Z,0.88
2019-04-25T15:43:33.431Z,0.70
2019-04-25T15:46:10.963Z,0.95
2019-04-25T15:48:37.384Z,0.90
2019-04-25T15:51:03.680Z,0.80
2019-04-25T15:53:30.672Z,0.80
2019-04-25T15:55:57.513Z,0.78
2019-04-25T15:58:23.960Z,0.78
2019-04-25T16:00:50.484Z,0.90
2019-04-25T16:03:22.951Z,0.80
2019-04-25T16:05:49.307Z,0.70
2019-04-25T16:08:15.726Z,1.05
2019-04-25T16:10:42.276Z,0.82
2019-04-25T16:13:08.894Z,0.70
2019-04-25T16:15:36.093Z,0.90
2019-04-25T16:18:02.922Z,0.50
2019-04-25T16:20:29.580Z,0.70
2019-04-25T16:22:55.995Z,0.90
2019-04-25T16:25:22.643Z,0.70
2019-04-25T16:27:49.331Z,0.90
2019-04-25T16:30:16.075Z,0.85
2019-04-25T16:32:42.382Z,0.90
2019-04-25T16:35:08.707Z,0.70
2019-04-25T16:37:35.014Z,0.62
2019-04-25T16:40:01.722Z,0.85
2019-04-25T16:42:28.159Z,0.80
2019-04-25T16:44:55.305Z,1.10
2019-04-25T16:47:23.019Z,1.02
2019-04-25T16:49:49.649Z,1.12
2019-04-25T16:52:17.691Z,0.80
2019-04-25T16:54:48.947Z,0.82
2019-04-25T16:57:15.445Z,1.10
2019-04-25T16:59:42.039Z,1.12
2019-04-25T17:02:08.716Z,0.95
2019-04-25T17:04:35.414Z,1.17
2019-04-25T17:07:02.277Z,1.12
2019-04-25T17:09:30.351Z,0.98
2019-04-25T17:11:56.980Z,0.62
2019-04-25T17:14:25.573Z,0.80
2019-04-25T17:17:02.799Z,0.98
2019-04-25T17:19:35.064Z,0.75
2019-04-25T17:22:01.464Z,0.90
2019-04-25T17:24:28.040Z,1.10
2019-04-25T17:26:54.340Z,0.70
2019-04-25T17:29:20.963Z,0.98
2019-04-25T17:31:49.283Z,1.02
2019-04-25T17:34:20.519Z,1.07
2019-04-25T17:36:51.715Z,1.10
2019-04-25T17:39:38.122Z,1.00
2019-04-25T17:42:04.443Z,0.95
2019-04-25T17:44:31.650Z,0.95
2019-04-25T17:47:06.496Z,0.88
2019-04-25T17:49:28.959Z,1.12
2019-04-25T17:51:55.265Z,1.05
2019-04-25T17:54:21.952Z,0.90
2019-04-25T17:56:48.481Z,0.90
2019-04-25T17:59:14.803Z,1.00
2019-04-25T18:01:42.172Z,0.85
2019-04-25T18:04:08.842Z,0.90
2019-04-25T18:06:35.657Z,0.80
2019-04-25T18:09:02.766Z,0.60
2019-04-25T18:11:29.176Z,0.82
2019-04-25T18:13:55.471Z,1.00
2019-04-25T18:16:23.772Z,0.98
2019-04-25T18:18:57.986Z,0.88
2019-04-25T18:21:24.536Z,0.90
2019-04-25T18:23:52.744Z,1.25
2019-04-25T18:26:20.967Z,0.98
2019-04-25T18:28:49.193Z,1.12
2019-04-25T18:31:15.716Z,0.95
2019-04-25T18:33:42.114Z,1.12
2019-04-25T18:36:19.819Z,1.47
2019-04-25T18:38:48.490Z,1.30
2019-04-25T18:41:19.443Z,1.10
2019-04-25T18:43:47.651Z,1.27
2019-04-25T18:46:16.865Z,1.20
2019-04-25T18:48:43.184Z,1.40
2019-04-25T18:51:09.615Z,1.40
2019-04-25T18:53:38.266Z,1.25
2019-04-25T18:56:10.034Z,1.35
2019-04-25T18:58:54.744Z,1.20
2019-04-25T19:01:22.991Z,1.07
2019-04-25T19:03:51.310Z,1.32
2019-04-25T19:06:19.507Z,0.82
2019-04-25T19:08:45.930Z,1.42
2019-04-25T19:11:12.341Z,1.20
2019-04-25T19:13:39.588Z,1.27
2019-04-25T19:16:05.979Z,1.00
2019-04-25T19:18:32.407Z,1.40
2019-04-25T19:20:58.966Z,1.40
2019-04-25T19:23:25.293Z,1.20
2019-04-25T19:25:52.181Z,1.25
2019-04-25T19:28:18.671Z,1.40
2019-04-25T19:30:45.287Z,0.90
2019-04-25T19:33:11.727Z,1.10
2019-04-25T19:35:38.008Z,1.25
2019-04-25T19:38:04.454Z,1.20
2019-04-25T19:40:32.772Z,1.12
2019-04-25T19:43:00.991Z,1.00
2019-04-25T19:45:27.524Z,1.85
2019-04-25T19:47:54.042Z,1.12
2019-04-25T19:50:20.398Z,1.20
2019-04-25T19:52:47.608Z,1.20
2019-04-25T19:55:14.051Z,0.95
2019-04-25T19:57:40.368Z,1.05
2019-04-25T20:00:06.914Z,0.98
2019-04-25T20:02:35.244Z,0.70
2019-04-25T20:05:15.267Z,1.20
2019-04-25T20:07:53.414Z,1.02
2019-04-25T20:10:36.797Z,1.10
2019-04-25T20:13:03.225Z,1.10
2019-04-25T20:15:29.742Z,1.22
2019-04-25T20:17:56.166Z,1.05
2019-04-25T20:20:23.191Z,0.70
2019-04-25T20:22:50.247Z,1.02
2019-04-25T20:25:16.807Z,1.17
2019-04-25T20:27:43.166Z,1.05
2019-04-25T20:30:09.698Z,1.00
2019-04-25T20:32:36.130Z,1.10
2019-04-25T20:35:02.652Z,1.22
2019-04-25T20:37:30.028Z,1.10
2019-04-25T20:39:56.671Z,0.95
2019-04-25T20:42:23.161Z,1.52
2019-04-25T20:44:49.766Z,1.02
2019-04-25T20:47:16.256Z,1.12
2019-04-25T20:49:42.909Z,1.15
2019-04-25T20:52:09.313Z,0.90
2019-04-25T20:54:35.771Z,1.40
2019-04-25T20:57:02.377Z,1.05
2019-04-25T20:59:28.786Z,0.80
2019-04-25T21:01:55.623Z,1.12
2019-04-25T21:04:41.343Z,1.00
2019-04-25T21:07:08.078Z,1.10
2019-04-25T21:09:34.591Z,0.90
2019-04-25T21:12:01.000Z,0.90
2019-04-25T21:14:35.359Z,0.90
2019-04-25T21:17:09.300Z,1.10
2019-04-25T21:19:37.679Z,0.98
2019-04-25T21:22:04.210Z,1.10
2019-04-25T21:24:30.652Z,1.17
2019-04-25T21:26:57.204Z,1.00
2019-04-25T21:29:23.515Z,0.90
2019-04-25T21:31:51.199Z,0.95
2019-04-25T21:34:25.761Z,0.98
2019-04-25T21:36:45.988Z,1.15
2019-04-25T21:39:20.629Z,0.85
2019-04-25T21:42:04.308Z,0.95
2019-04-25T21:44:31.258Z,0.93
2019-04-25T21:46:58.457Z,0.90
2019-04-25T21:49:25.339Z,1.10
2019-04-25T21:51:52.610Z,0.88
2019-04-25T21:54:20.259Z,0.90
2019-04-25T21:56:46.986Z,0.80
2019-04-25T21:59:13.799Z,1.00
2019-04-25T22:01:42.263Z,1.22
2019-04-25T22:04:08.965Z,1.42
2019-04-25T22:06:35.814Z,0.98
2019-04-25T22:09:05.095Z,0.82
2019-04-25T22:11:31.531Z,1.10
2019-04-25T22:13:59.478Z,1.02
2019-04-25T22:16:26.118Z,0.90
2019-04-25T22:18:53.039Z,0.90
2019-04-25T22:21:20.254Z,0.80
2019-04-25T22:23:46.966Z,0.80
2019-04-25T22:26:13.532Z,0.93
2019-04-25T22:28:40.567Z,0.80
2019-04-25T22:31:09.062Z,0.88
2019-04-25T22:33:42.981Z,0.98
2019-04-25T22:36:14.435Z,0.75
2019-04-25T22:38:40.888Z,0.98
2019-04-25T22:41:07.507Z,0.78
2019-04-25T22:43:36.194Z,1.00
2019-04-25T22:46:02.792Z,0.80
2019-04-25T22:48:41.103Z,0.82
2019-04-25T22:51:08.596Z,0.85
2019-04-25T22:53:34.994Z,0.90
2019-04-25T22:56:01.808Z,0.78
2019-04-25T22:58:28.368Z,0.90
2019-04-25T23:00:55.071Z,0.93
2019-04-25T23:03:23.298Z,0.90
2019-04-25T23:05:51.511Z,0.90
2019-04-25T23:08:18.541Z,0.98
2019-04-25T23:10:44.850Z,1.00
2019-04-25T23:13:11.499Z,1.10
2019-04-25T23:15:37.825Z,0.80
2019-04-25T23:18:05.385Z,0.88
2019-04-25T23:20:32.143Z,0.78
2019-04-25T23:22:58.576Z,0.90
2019-04-25T23:25:26.926Z,0.90
2019-04-25T23:28:01.126Z,0.85
2019-04-25T23:30:29.755Z,1.00
2019-04-25T23:32:56.292Z,0.95
2019-04-25T23:35:29.535Z,1.05
2019-04-25T23:37:51.048Z,0.80
2019-04-25T23:40:17.454Z,0.88
2019-04-25T23:42:43.852Z,0.90
2019-04-25T23:45:10.398Z,0.80
2019-04-25T23:47:37.202Z,0.88
2019-04-25T23:50:07.068Z,0.90
2019-04-25T23:52:33.667Z,0.90
2019-04-25T23:55:00.196Z,0.78
2019-04-25T23:57:26.536Z,0.72
2019-04-25T23:59:53.546Z,1.00
